Hlavní strana
METAR-TAF:

METAR-TAF

Letiště :

Saint-Denis, Réunion

zeměpisná šířka: 20-53S, zeměpisná délka: 055-31E, výška: 21 m

Aktuální stav počasí

Zpráva byla vytvořena před 46 minutami, v 07:30 UTC
Severoseverovýchodní vítr 5 kt
Teplota 29°C
Vlhkost vzduchu 74%
Tlak 1016 hPa
Viditelnost 10 km a více
Oblačno až skoro zataženo ve výšce 3200 ft

METAR: FMEE 180730Z AUTO 02005KT 9999 BKN032 29/24 Q1016 NOSIG

Čas: 12:16 (08:16 UTC)

Předpověď počasí

Zpráva byla vytvořena před 3 hodinami a 16 minutami, v 05:00 UTC
Předpověď platná od 18 v 06 UTC do 19 v 12 UTC
Východní vítr 4 kt
Viditelnost 10 km a více
Skoro jasno ve výšce 3500 ft
Dočasný
od 18 v 09 UTC do 18 v 18 UTC
slabé dešťové přeháňky

TAF: FMEE 180500Z 1806/1912 08004KT 9999 FEW035 TEMPO 1809/1818 -SHRA

Stav a předpovědi počasí z více než 4 000 letišť (zprávy METAR a TAF).

Červené a žluté tečky na mapě představují dostupné meteorologické stanice.

Když kurzor umístíte na tečku, zobrazí se název stanice.

Pak kliknutím zobrazíte stav a předpověď počasí.

Chcete-li změnit mapu, kliknutím na zelené tlačítko se znaménkem +mapu přiblížíte, kliknutím na zelené tlačítko se znaménkem – mapu oddálíte a kliknutím na zelené šipky přejdete na sousední mapy.


METAR-TAF: